sensor_id;sensor_type;location;lat;lon;timestamp;P1;durP1;ratioP1;P2;durP2;ratioP2
66667;SDS011;57205;51.438;-2.006;2023-06-10T00:00:35;20.77;;;8.35;;
66667;SDS011;57205;51.438;-2.006;2023-06-10T00:03:01;17.75;;;8.40;;
66667;SDS011;57205;51.438;-2.006;2023-06-10T00:05:26;20.00;;;8.68;;
66667;SDS011;57205;51.438;-2.006;2023-06-10T00:07:55;14.27;;;8.10;;
66667;SDS011;57205;51.438;-2.006;2023-06-10T00:10:21;14.57;;;7.57;;
66667;SDS011;57205;51.438;-2.006;2023-06-10T00:12:47;15.60;;;8.77;;
66667;SDS011;57205;51.438;-2.006;2023-06-10T00:15:13;17.70;;;8.32;;
66667;SDS011;57205;51.438;-2.006;2023-06-10T00:17:39;20.63;;;8.70;;
66667;SDS011;57205;51.438;-2.006;2023-06-10T00:20:07;20.42;;;9.52;;
66667;SDS011;57205;51.438;-2.006;2023-06-10T00:22:36;19.52;;;8.13;;
66667;SDS011;57205;51.438;-2.006;2023-06-10T00:25:05;23.50;;;10.00;;
66667;SDS011;57205;51.438;-2.006;2023-06-10T00:27:31;18.75;;;8.23;;
66667;SDS011;57205;51.438;-2.006;2023-06-10T00:30:00;22.45;;;9.63;;
66667;SDS011;57205;51.438;-2.006;2023-06-10T00:32:29;23.38;;;9.20;;
66667;SDS011;57205;51.438;-2.006;2023-06-10T00:34:56;15.98;;;9.15;;
66667;SDS011;57205;51.438;-2.006;2023-06-10T00:37:21;22.65;;;9.05;;
66667;SDS011;57205;51.438;-2.006;2023-06-10T00:39:47;21.90;;;9.43;;
66667;SDS011;57205;51.438;-2.006;2023-06-10T00:42:12;18.10;;;8.93;;
66667;SDS011;57205;51.438;-2.006;2023-06-10T00:44:38;22.90;;;9.85;;
66667;SDS011;57205;51.438;-2.006;2023-06-10T00:47:03;22.20;;;9.75;;
66667;SDS011;57205;51.438;-2.006;2023-06-10T00:49:29;21.85;;;10.07;;
66667;SDS011;57205;51.438;-2.006;2023-06-10T00:51:55;17.67;;;9.77;;
66667;SDS011;57205;51.438;-2.006;2023-06-10T00:54:20;21.55;;;10.35;;
66667;SDS011;57205;51.438;-2.006;2023-06-10T00:56:47;20.88;;;10.07;;
66667;SDS011;57205;51.438;-2.006;2023-06-10T00:59:13;21.42;;;11.05;;
66667;SDS011;57205;51.438;-2.006;2023-06-10T01:01:41;20.38;;;10.77;;
66667;SDS011;57205;51.438;-2.006;2023-06-10T01:04:08;26.35;;;10.43;;
66667;SDS011;57205;51.438;-2.006;2023-06-10T01:06:57;25.75;;;12.10;;
66667;SDS011;57205;51.438;-2.006;2023-06-10T01:09:33;19.75;;;10.70;;
66667;SDS011;57205;51.438;-2.006;2023-06-10T01:12:35;27.02;;;12.32;;
66667;SDS011;57205;51.438;-2.006;2023-06-10T01:15:13;26.42;;;12.02;;
66667;SDS011;57205;51.438;-2.006;2023-06-10T01:17:54;21.67;;;12.02;;
66667;SDS011;57205;51.438;-2.006;2023-06-10T01:20:20;19.70;;;11.38;;
66667;SDS011;57205;51.438;-2.006;2023-06-10T01:22:46;24.98;;;12.90;;
66667;SDS011;57205;51.438;-2.006;2023-06-10T01:25:12;22.88;;;12.40;;
66667;SDS011;57205;51.438;-2.006;2023-06-10T01:27:38;26.10;;;12.40;;
66667;SDS011;57205;51.438;-2.006;2023-06-10T01:30:17;24.40;;;13.35;;
66667;SDS011;57205;51.438;-2.006;2023-06-10T01:32:46;26.17;;;13.43;;
66667;SDS011;57205;51.438;-2.006;2023-06-10T01:35:15;28.30;;;15.50;;
66667;SDS011;57205;51.438;-2.006;2023-06-10T01:37:42;25.92;;;13.23;;
66667;SDS011;57205;51.438;-2.006;2023-06-10T01:40:11;23.35;;;12.52;;
66667;SDS011;57205;51.438;-2.006;2023-06-10T01:42:37;22.80;;;13.85;;
66667;SDS011;57205;51.438;-2.006;2023-06-10T01:45:03;22.77;;;12.05;;
66667;SDS011;57205;51.438;-2.006;2023-06-10T01:47:29;21.75;;;12.88;;
66667;SDS011;57205;51.438;-2.006;2023-06-10T01:49:54;36.28;;;15.23;;
66667;SDS011;57205;51.438;-2.006;2023-06-10T01:52:20;28.05;;;13.40;;
66667;SDS011;57205;51.438;-2.006;2023-06-10T01:54:45;28.85;;;14.43;;
66667;SDS011;57205;51.438;-2.006;2023-06-10T01:57:11;28.08;;;13.40;;
66667;SDS011;57205;51.438;-2.006;2023-06-10T01:59:36;25.33;;;13.57;;
66667;SDS011;57205;51.438;-2.006;2023-06-10T02:02:03;28.98;;;14.40;;
66667;SDS011;57205;51.438;-2.006;2023-06-10T02:04:29;30.08;;;14.27;;
66667;SDS011;57205;51.438;-2.006;2023-06-10T02:06:55;29.02;;;14.48;;
66667;SDS011;57205;51.438;-2.006;2023-06-10T02:09:21;24.63;;;14.38;;
66667;SDS011;57205;51.438;-2.006;2023-06-10T02:11:48;24.95;;;13.93;;
66667;SDS011;57205;51.438;-2.006;2023-06-10T02:14:13;31.85;;;14.52;;
66667;SDS011;57205;51.438;-2.006;2023-06-10T02:16:39;29.73;;;14.02;;
66667;SDS011;57205;51.438;-2.006;2023-06-10T02:19:05;24.83;;;14.70;;
66667;SDS011;57205;51.438;-2.006;2023-06-10T02:21:31;29.30;;;14.20;;
66667;SDS011;57205;51.438;-2.006;2023-06-10T02:23:57;24.77;;;16.42;;
66667;SDS011;57205;51.438;-2.006;2023-06-10T02:26:22;29.95;;;15.32;;
66667;SDS011;57205;51.438;-2.006;2023-06-10T02:28:50;23.08;;;13.80;;
66667;SDS011;57205;51.438;-2.006;2023-06-10T02:31:16;29.75;;;16.23;;
66667;SDS011;57205;51.438;-2.006;2023-06-10T02:33:44;28.30;;;14.18;;
66667;SDS011;57205;51.438;-2.006;2023-06-10T02:36:10;25.10;;;13.70;;
66667;SDS011;57205;51.438;-2.006;2023-06-10T02:38:40;27.40;;;14.88;;
66667;SDS011;57205;51.438;-2.006;2023-06-10T02:41:06;26.42;;;14.55;;
66667;SDS011;57205;51.438;-2.006;2023-06-10T02:43:31;38.63;;;14.68;;
66667;SDS011;57205;51.438;-2.006;2023-06-10T02:45:57;24.88;;;13.27;;
66667;SDS011;57205;51.438;-2.006;2023-06-10T02:48:26;31.35;;;14.20;;
66667;SDS011;57205;51.438;-2.006;2023-06-10T02:50:52;24.83;;;13.63;;
66667;SDS011;57205;51.438;-2.006;2023-06-10T02:53:17;30.40;;;15.38;;
66667;SDS011;57205;51.438;-2.006;2023-06-10T02:55:42;32.28;;;14.80;;
66667;SDS011;57205;51.438;-2.006;2023-06-10T02:58:09;27.85;;;14.20;;
66667;SDS011;57205;51.438;-2.006;2023-06-10T03:00:35;31.77;;;15.88;;
66667;SDS011;57205;51.438;-2.006;2023-06-10T03:03:02;29.95;;;16.17;;
66667;SDS011;57205;51.438;-2.006;2023-06-10T03:05:28;26.92;;;14.60;;
66667;SDS011;57205;51.438;-2.006;2023-06-10T03:07:54;28.33;;;14.90;;
66667;SDS011;57205;51.438;-2.006;2023-06-10T03:10:20;34.08;;;16.73;;
66667;SDS011;57205;51.438;-2.006;2023-06-10T03:12:45;28.67;;;16.10;;
66667;SDS011;57205;51.438;-2.006;2023-06-10T03:15:11;28.45;;;16.30;;
66667;SDS011;57205;51.438;-2.006;2023-06-10T03:17:36;36.00;;;16.17;;
66667;SDS011;57205;51.438;-2.006;2023-06-10T03:20:02;29.15;;;14.35;;
66667;SDS011;57205;51.438;-2.006;2023-06-10T03:22:30;38.90;;;15.30;;
66667;SDS011;57205;51.438;-2.006;2023-06-10T03:24:56;28.73;;;15.65;;
66667;SDS011;57205;51.438;-2.006;2023-06-10T03:27:22;32.63;;;16.58;;
66667;SDS011;57205;51.438;-2.006;2023-06-10T03:29:47;32.40;;;15.85;;
66667;SDS011;57205;51.438;-2.006;2023-06-10T03:32:13;34.22;;;16.15;;
66667;SDS011;57205;51.438;-2.006;2023-06-10T03:34:39;35.80;;;16.10;;
66667;SDS011;57205;51.438;-2.006;2023-06-10T03:37:05;29.48;;;15.70;;
66667;SDS011;57205;51.438;-2.006;2023-06-10T03:39:31;32.20;;;16.00;;
66667;SDS011;57205;51.438;-2.006;2023-06-10T03:41:57;32.10;;;15.98;;
66667;SDS011;57205;51.438;-2.006;2023-06-10T03:44:24;34.85;;;17.17;;
66667;SDS011;57205;51.438;-2.006;2023-06-10T03:46:50;33.85;;;16.67;;
66667;SDS011;57205;51.438;-2.006;2023-06-10T03:49:16;31.20;;;16.20;;
66667;SDS011;57205;51.438;-2.006;2023-06-10T03:51:42;30.25;;;16.17;;
66667;SDS011;57205;51.438;-2.006;2023-06-10T03:54:08;26.98;;;16.48;;
66667;SDS011;57205;51.438;-2.006;2023-06-10T03:56:33;26.35;;;15.05;;
66667;SDS011;57205;51.438;-2.006;2023-06-10T03:58:59;36.42;;;15.70;;
66667;SDS011;57205;51.438;-2.006;2023-06-10T04:01:25;32.20;;;16.90;;
66667;SDS011;57205;51.438;-2.006;2023-06-10T04:03:50;34.17;;;17.58;;
66667;SDS011;57205;51.438;-2.006;2023-06-10T04:06:19;26.75;;;15.55;;
66667;SDS011;57205;51.438;-2.006;2023-06-10T04:08:44;27.58;;;15.95;;
66667;SDS011;57205;51.438;-2.006;2023-06-10T04:11:09;33.13;;;16.25;;
66667;SDS011;57205;51.438;-2.006;2023-06-10T04:13:35;38.95;;;16.35;;
66667;SDS011;57205;51.438;-2.006;2023-06-10T04:16:01;24.55;;;14.98;;
66667;SDS011;57205;51.438;-2.006;2023-06-10T04:18:27;37.75;;;16.30;;
66667;SDS011;57205;51.438;-2.006;2023-06-10T04:20:53;30.02;;;14.48;;
66667;SDS011;57205;51.438;-2.006;2023-06-10T04:23:19;33.88;;;16.75;;
66667;SDS011;57205;51.438;-2.006;2023-06-10T04:25:44;29.48;;;15.88;;
66667;SDS011;57205;51.438;-2.006;2023-06-10T04:28:09;34.28;;;16.65;;
66667;SDS011;57205;51.438;-2.006;2023-06-10T04:30:35;37.85;;;16.98;;
66667;SDS011;57205;51.438;-2.006;2023-06-10T04:33:00;28.80;;;15.80;;
66667;SDS011;57205;51.438;-2.006;2023-06-10T04:35:26;26.95;;;15.45;;
66667;SDS011;57205;51.438;-2.006;2023-06-10T04:37:52;25.73;;;14.15;;
66667;SDS011;57205;51.438;-2.006;2023-06-10T04:40:19;25.45;;;13.68;;
66667;SDS011;57205;51.438;-2.006;2023-06-10T04:42:44;31.90;;;14.75;;
66667;SDS011;57205;51.438;-2.006;2023-06-10T04:45:10;27.77;;;14.13;;
66667;SDS011;57205;51.438;-2.006;2023-06-10T04:47:36;29.23;;;14.38;;
66667;SDS011;57205;51.438;-2.006;2023-06-10T04:50:02;23.65;;;14.65;;
66667;SDS011;57205;51.438;-2.006;2023-06-10T04:52:29;26.35;;;14.43;;
66667;SDS011;57205;51.438;-2.006;2023-06-10T04:54:54;29.83;;;13.50;;
66667;SDS011;57205;51.438;-2.006;2023-06-10T04:57:20;25.90;;;14.80;;
66667;SDS011;57205;51.438;-2.006;2023-06-10T04:59:46;25.58;;;13.60;;
66667;SDS011;57205;51.438;-2.006;2023-06-10T05:02:12;25.73;;;13.50;;
66667;SDS011;57205;51.438;-2.006;2023-06-10T05:04:38;27.50;;;12.73;;
66667;SDS011;57205;51.438;-2.006;2023-06-10T05:07:04;21.90;;;13.10;;
66667;SDS011;57205;51.438;-2.006;2023-06-10T05:09:30;21.20;;;12.35;;
66667;SDS011;57205;51.438;-2.006;2023-06-10T05:11:58;24.10;;;13.60;;
66667;SDS011;57205;51.438;-2.006;2023-06-10T05:14:23;27.85;;;13.27;;
66667;SDS011;57205;51.438;-2.006;2023-06-10T05:16:48;27.65;;;12.85;;
66667;SDS011;57205;51.438;-2.006;2023-06-10T05:19:14;23.33;;;13.35;;
66667;SDS011;57205;51.438;-2.006;2023-06-10T05:21:42;24.95;;;13.63;;
66667;SDS011;57205;51.438;-2.006;2023-06-10T05:24:07;22.00;;;11.57;;
66667;SDS011;57205;51.438;-2.006;2023-06-10T05:26:33;20.52;;;11.40;;
66667;SDS011;57205;51.438;-2.006;2023-06-10T05:29:02;21.42;;;12.98;;
66667;SDS011;57205;51.438;-2.006;2023-06-10T05:31:28;21.73;;;12.20;;
66667;SDS011;57205;51.438;-2.006;2023-06-10T05:33:53;20.48;;;12.43;;
66667;SDS011;57205;51.438;-2.006;2023-06-10T05:36:19;19.13;;;11.50;;
66667;SDS011;57205;51.438;-2.006;2023-06-10T05:38:44;30.85;;;12.82;;
66667;SDS011;57205;51.438;-2.006;2023-06-10T05:41:10;22.42;;;12.55;;
66667;SDS011;57205;51.438;-2.006;2023-06-10T05:43:35;24.42;;;12.30;;
66667;SDS011;57205;51.438;-2.006;2023-06-10T05:46:00;23.95;;;11.98;;
66667;SDS011;57205;51.438;-2.006;2023-06-10T05:48:26;24.15;;;12.50;;
66667;SDS011;57205;51.438;-2.006;2023-06-10T05:50:51;21.23;;;12.27;;
66667;SDS011;57205;51.438;-2.006;2023-06-10T05:53:17;22.35;;;11.15;;
66667;SDS011;57205;51.438;-2.006;2023-06-10T05:55:42;26.02;;;12.25;;
66667;SDS011;57205;51.438;-2.006;2023-06-10T05:58:09;24.08;;;11.40;;
66667;SDS011;57205;51.438;-2.006;2023-06-10T06:00:34;22.20;;;10.80;;
66667;SDS011;57205;51.438;-2.006;2023-06-10T06:03:00;22.83;;;10.75;;
66667;SDS011;57205;51.438;-2.006;2023-06-10T06:05:25;19.77;;;10.57;;
66667;SDS011;57205;51.438;-2.006;2023-06-10T06:07:51;21.13;;;10.38;;
66667;SDS011;57205;51.438;-2.006;2023-06-10T06:10:17;18.35;;;10.07;;
66667;SDS011;57205;51.438;-2.006;2023-06-10T06:12:43;16.30;;;9.73;;
66667;SDS011;57205;51.438;-2.006;2023-06-10T06:15:10;17.70;;;9.95;;
66667;SDS011;57205;51.438;-2.006;2023-06-10T06:17:36;21.17;;;11.43;;
66667;SDS011;57205;51.438;-2.006;2023-06-10T06:20:02;20.23;;;10.63;;
66667;SDS011;57205;51.438;-2.006;2023-06-10T06:22:28;18.83;;;10.32;;
66667;SDS011;57205;51.438;-2.006;2023-06-10T06:24:54;20.13;;;10.35;;
66667;SDS011;57205;51.438;-2.006;2023-06-10T06:27:19;19.48;;;10.65;;
66667;SDS011;57205;51.438;-2.006;2023-06-10T06:29:46;15.88;;;10.20;;
66667;SDS011;57205;51.438;-2.006;2023-06-10T06:32:11;22.08;;;10.48;;
66667;SDS011;57205;51.438;-2.006;2023-06-10T06:34:37;20.13;;;11.00;;
66667;SDS011;57205;51.438;-2.006;2023-06-10T06:37:02;19.95;;;10.65;;
66667;SDS011;57205;51.438;-2.006;2023-06-10T06:39:29;19.00;;;10.85;;
66667;SDS011;57205;51.438;-2.006;2023-06-10T06:41:55;20.42;;;10.50;;
66667;SDS011;57205;51.438;-2.006;2023-06-10T06:44:20;20.27;;;10.60;;
66667;SDS011;57205;51.438;-2.006;2023-06-10T06:46:45;19.65;;;9.95;;
66667;SDS011;57205;51.438;-2.006;2023-06-10T06:49:11;21.90;;;10.50;;
66667;SDS011;57205;51.438;-2.006;2023-06-10T06:51:36;16.00;;;9.35;;
66667;SDS011;57205;51.438;-2.006;2023-06-10T06:54:03;14.73;;;9.23;;
66667;SDS011;57205;51.438;-2.006;2023-06-10T06:56:30;19.10;;;9.23;;
66667;SDS011;57205;51.438;-2.006;2023-06-10T06:58:56;16.95;;;8.88;;
66667;SDS011;57205;51.438;-2.006;2023-06-10T07:01:23;16.27;;;8.77;;
66667;SDS011;57205;51.438;-2.006;2023-06-10T07:03:48;13.70;;;8.63;;
66667;SDS011;57205;51.438;-2.006;2023-06-10T07:06:14;14.30;;;8.25;;
66667;SDS011;57205;51.438;-2.006;2023-06-10T07:08:39;14.10;;;8.25;;
66667;SDS011;57205;51.438;-2.006;2023-06-10T07:11:06;18.27;;;9.18;;
66667;SDS011;57205;51.438;-2.006;2023-06-10T07:13:31;16.45;;;9.00;;
66667;SDS011;57205;51.438;-2.006;2023-06-10T07:15:57;17.70;;;9.57;;
66667;SDS011;57205;51.438;-2.006;2023-06-10T07:18:22;18.20;;;8.98;;
66667;SDS011;57205;51.438;-2.006;2023-06-10T07:20:47;18.23;;;9.25;;
66667;SDS011;57205;51.438;-2.006;2023-06-10T07:23:13;16.67;;;8.55;;
66667;SDS011;57205;51.438;-2.006;2023-06-10T07:25:38;16.05;;;8.55;;
66667;SDS011;57205;51.438;-2.006;2023-06-10T07:28:06;17.45;;;9.05;;
66667;SDS011;57205;51.438;-2.006;2023-06-10T07:30:32;17.50;;;8.13;;
66667;SDS011;57205;51.438;-2.006;2023-06-10T07:32:57;23.77;;;8.93;;
66667;SDS011;57205;51.438;-2.006;2023-06-10T07:35:23;19.15;;;9.93;;
66667;SDS011;57205;51.438;-2.006;2023-06-10T07:37:48;14.10;;;8.40;;
66667;SDS011;57205;51.438;-2.006;2023-06-10T07:40:14;19.92;;;8.40;;
66667;SDS011;57205;51.438;-2.006;2023-06-10T07:42:39;17.33;;;8.70;;
66667;SDS011;57205;51.438;-2.006;2023-06-10T07:45:05;14.88;;;8.10;;
66667;SDS011;57205;51.438;-2.006;2023-06-10T07:47:32;15.10;;;7.93;;
66667;SDS011;57205;51.438;-2.006;2023-06-10T07:49:58;15.07;;;8.70;;
66667;SDS011;57205;51.438;-2.006;2023-06-10T07:52:24;15.82;;;9.18;;
66667;SDS011;57205;51.438;-2.006;2023-06-10T07:54:50;18.85;;;8.13;;
66667;SDS011;57205;51.438;-2.006;2023-06-10T07:57:16;15.75;;;9.02;;
66667;SDS011;57205;51.438;-2.006;2023-06-10T07:59:42;15.05;;;8.30;;
66667;SDS011;57205;51.438;-2.006;2023-06-10T08:02:09;15.45;;;7.85;;
66667;SDS011;57205;51.438;-2.006;2023-06-10T08:04:34;18.63;;;8.43;;
66667;SDS011;57205;51.438;-2.006;2023-06-10T08:07:00;15.43;;;8.77;;
66667;SDS011;57205;51.438;-2.006;2023-06-10T08:09:26;14.95;;;8.40;;
66667;SDS011;57205;51.438;-2.006;2023-06-10T08:11:51;15.50;;;7.75;;
66667;SDS011;57205;51.438;-2.006;2023-06-10T08:14:16;15.07;;;8.05;;
66667;SDS011;57205;51.438;-2.006;2023-06-10T08:16:43;13.50;;;8.32;;
66667;SDS011;57205;51.438;-2.006;2023-06-10T08:19:08;14.73;;;8.57;;
66667;SDS011;57205;51.438;-2.006;2023-06-10T08:21:34;13.60;;;7.20;;
66667;SDS011;57205;51.438;-2.006;2023-06-10T08:24:02;12.90;;;8.18;;
66667;SDS011;57205;51.438;-2.006;2023-06-10T08:26:27;12.48;;;8.02;;
66667;SDS011;57205;51.438;-2.006;2023-06-10T08:28:53;15.55;;;8.13;;
66667;SDS011;57205;51.438;-2.006;2023-06-10T08:31:20;13.52;;;8.10;;
66667;SDS011;57205;51.438;-2.006;2023-06-10T08:33:46;14.60;;;8.80;;
66667;SDS011;57205;51.438;-2.006;2023-06-10T08:36:11;14.50;;;7.95;;
66667;SDS011;57205;51.438;-2.006;2023-06-10T08:38:37;16.42;;;8.80;;
66667;SDS011;57205;51.438;-2.006;2023-06-10T08:41:02;16.00;;;8.15;;
66667;SDS011;57205;51.438;-2.006;2023-06-10T08:43:32;16.90;;;7.85;;
66667;SDS011;57205;51.438;-2.006;2023-06-10T08:46:02;18.00;;;8.80;;
66667;SDS011;57205;51.438;-2.006;2023-06-10T08:48:29;18.27;;;8.82;;
66667;SDS011;57205;51.438;-2.006;2023-06-10T08:50:56;13.82;;;8.13;;
66667;SDS011;57205;51.438;-2.006;2023-06-10T08:53:23;13.27;;;8.07;;
66667;SDS011;57205;51.438;-2.006;2023-06-10T08:55:53;15.07;;;8.73;;
66667;SDS011;57205;51.438;-2.006;2023-06-10T08:58:23;13.93;;;8.25;;
66667;SDS011;57205;51.438;-2.006;2023-06-10T09:00:50;16.88;;;8.95;;
66667;SDS011;57205;51.438;-2.006;2023-06-10T09:03:16;15.38;;;8.02;;
66667;SDS011;57205;51.438;-2.006;2023-06-10T09:05:43;16.48;;;8.50;;
66667;SDS011;57205;51.438;-2.006;2023-06-10T09:08:09;15.95;;;8.55;;
66667;SDS011;57205;51.438;-2.006;2023-06-10T09:10:35;14.30;;;8.88;;
66667;SDS011;57205;51.438;-2.006;2023-06-10T09:13:00;14.35;;;8.07;;
66667;SDS011;57205;51.438;-2.006;2023-06-10T09:15:26;14.63;;;7.50;;
66667;SDS011;57205;51.438;-2.006;2023-06-10T09:17:53;17.00;;;8.68;;
66667;SDS011;57205;51.438;-2.006;2023-06-10T09:20:19;17.25;;;8.13;;
66667;SDS011;57205;51.438;-2.006;2023-06-10T09:22:44;16.48;;;8.45;;
66667;SDS011;57205;51.438;-2.006;2023-06-10T09:25:10;13.90;;;8.30;;
66667;SDS011;57205;51.438;-2.006;2023-06-10T09:27:50;13.88;;;8.10;;
66667;SDS011;57205;51.438;-2.006;2023-06-10T09:30:28;18.63;;;8.20;;
66667;SDS011;57205;51.438;-2.006;2023-06-10T09:32:55;17.52;;;8.07;;
66667;SDS011;57205;51.438;-2.006;2023-06-10T09:35:22;15.02;;;7.20;;
66667;SDS011;57205;51.438;-2.006;2023-06-10T09:37:49;16.15;;;8.02;;
66667;SDS011;57205;51.438;-2.006;2023-06-10T09:40:16;13.82;;;6.85;;
66667;SDS011;57205;51.438;-2.006;2023-06-10T09:42:42;15.98;;;7.72;;
66667;SDS011;57205;51.438;-2.006;2023-06-10T09:45:07;17.67;;;8.35;;
66667;SDS011;57205;51.438;-2.006;2023-06-10T09:47:33;15.13;;;8.27;;
66667;SDS011;57205;51.438;-2.006;2023-06-10T09:49:59;9.85;;;6.93;;
66667;SDS011;57205;51.438;-2.006;2023-06-10T09:52:25;15.00;;;8.13;;
66667;SDS011;57205;51.438;-2.006;2023-06-10T09:54:52;13.73;;;7.78;;
66667;SDS011;57205;51.438;-2.006;2023-06-10T09:57:19;15.85;;;7.45;;
66667;SDS011;57205;51.438;-2.006;2023-06-10T09:59:46;14.55;;;7.38;;
66667;SDS011;57205;51.438;-2.006;2023-06-10T10:02:18;13.57;;;7.15;;
66667;SDS011;57205;51.438;-2.006;2023-06-10T10:04:44;13.07;;;8.30;;
66667;SDS011;57205;51.438;-2.006;2023-06-10T10:07:10;14.27;;;7.93;;
66667;SDS011;57205;51.438;-2.006;2023-06-10T10:09:39;11.60;;;6.70;;
66667;SDS011;57205;51.438;-2.006;2023-06-10T10:12:08;12.32;;;7.40;;
66667;SDS011;57205;51.438;-2.006;2023-06-10T10:14:36;14.80;;;7.40;;
66667;SDS011;57205;51.438;-2.006;2023-06-10T10:17:07;13.07;;;7.38;;
66667;SDS011;57205;51.438;-2.006;2023-06-10T10:19:50;12.50;;;6.68;;
66667;SDS011;57205;51.438;-2.006;2023-06-10T10:22:42;12.93;;;6.72;;
66667;SDS011;57205;51.438;-2.006;2023-06-10T10:25:13;10.52;;;7.03;;
66667;SDS011;57205;51.438;-2.006;2023-06-10T10:27:54;13.15;;;7.22;;
66667;SDS011;57205;51.438;-2.006;2023-06-10T10:30:24;16.10;;;7.50;;
66667;SDS011;57205;51.438;-2.006;2023-06-10T10:32:58;13.85;;;6.57;;
66667;SDS011;57205;51.438;-2.006;2023-06-10T10:35:30;11.25;;;6.65;;
66667;SDS011;57205;51.438;-2.006;2023-06-10T10:37:57;15.75;;;7.00;;
66667;SDS011;57205;51.438;-2.006;2023-06-10T10:40:23;13.77;;;7.03;;
66667;SDS011;57205;51.438;-2.006;2023-06-10T10:42:51;12.10;;;6.35;;
66667;SDS011;57205;51.438;-2.006;2023-06-10T10:45:17;13.95;;;7.50;;
66667;SDS011;57205;51.438;-2.006;2023-06-10T10:47:45;10.63;;;6.30;;
66667;SDS011;57205;51.438;-2.006;2023-06-10T10:50:17;12.70;;;6.55;;
66667;SDS011;57205;51.438;-2.006;2023-06-10T10:55:20;13.50;;;7.13;;
66667;SDS011;57205;51.438;-2.006;2023-06-10T10:57:53;11.07;;;6.85;;
66667;SDS011;57205;51.438;-2.006;2023-06-10T11:00:27;18.67;;;7.38;;
66667;SDS011;57205;51.438;-2.006;2023-06-10T11:02:54;10.35;;;6.68;;
66667;SDS011;57205;51.438;-2.006;2023-06-10T11:05:37;11.77;;;6.38;;
66667;SDS011;57205;51.438;-2.006;2023-06-10T11:08:09;10.82;;;7.32;;
66667;SDS011;57205;51.438;-2.006;2023-06-10T11:10:41;14.20;;;7.78;;
66667;SDS011;57205;51.438;-2.006;2023-06-10T11:13:18;13.00;;;7.15;;
66667;SDS011;57205;51.438;-2.006;2023-06-10T11:15:51;17.70;;;7.20;;
66667;SDS011;57205;51.438;-2.006;2023-06-10T11:20:53;17.10;;;9.32;;
66667;SDS011;57205;51.438;-2.006;2023-06-10T11:26:43;15.60;;;7.22;;
66667;SDS011;57205;51.438;-2.006;2023-06-10T11:34:08;16.20;;;8.52;;
66667;SDS011;57205;51.438;-2.006;2023-06-10T11:36:36;12.27;;;7.30;;
66667;SDS011;57205;51.438;-2.006;2023-06-10T11:39:05;17.02;;;7.40;;
66667;SDS011;57205;51.438;-2.006;2023-06-10T11:41:31;14.23;;;7.40;;
66667;SDS011;57205;51.438;-2.006;2023-06-10T11:44:01;16.13;;;7.18;;
66667;SDS011;57205;51.438;-2.006;2023-06-10T11:46:40;10.90;;;7.53;;
66667;SDS011;57205;51.438;-2.006;2023-06-10T11:49:07;9.27;;;6.35;;
66667;SDS011;57205;51.438;-2.006;2023-06-10T11:51:34;11.00;;;7.18;;
66667;SDS011;57205;51.438;-2.006;2023-06-10T11:54:02;11.75;;;6.55;;
66667;SDS011;57205;51.438;-2.006;2023-06-10T11:56:29;13.38;;;7.18;;
66667;SDS011;57205;51.438;-2.006;2023-06-10T12:04:07;12.27;;;7.13;;
66667;SDS011;57205;51.438;-2.006;2023-06-10T12:06:40;10.65;;;6.97;;
66667;SDS011;57205;51.438;-2.006;2023-06-10T12:09:13;10.40;;;6.50;;
66667;SDS011;57205;51.438;-2.006;2023-06-10T12:11:39;14.43;;;7.00;;
66667;SDS011;57205;51.438;-2.006;2023-06-10T12:14:05;8.95;;;6.57;;
66667;SDS011;57205;51.438;-2.006;2023-06-10T12:16:31;10.50;;;6.85;;
66667;SDS011;57205;51.438;-2.006;2023-06-10T12:19:03;10.30;;;6.60;;
66667;SDS011;57205;51.438;-2.006;2023-06-10T12:21:30;13.23;;;7.47;;
66667;SDS011;57205;51.438;-2.006;2023-06-10T12:24:01;11.57;;;6.28;;
66667;SDS011;57205;51.438;-2.006;2023-06-10T12:26:44;14.85;;;7.82;;
66667;SDS011;57205;51.438;-2.006;2023-06-10T12:34:37;11.27;;;6.97;;
66667;SDS011;57205;51.438;-2.006;2023-06-10T12:37:06;9.63;;;7.32;;
66667;SDS011;57205;51.438;-2.006;2023-06-10T12:39:38;11.30;;;6.78;;
66667;SDS011;57205;51.438;-2.006;2023-06-10T12:42:05;12.45;;;6.57;;
66667;SDS011;57205;51.438;-2.006;2023-06-10T12:44:35;12.02;;;6.72;;
66667;SDS011;57205;51.438;-2.006;2023-06-10T12:47:08;8.25;;;5.70;;
66667;SDS011;57205;51.438;-2.006;2023-06-10T12:49:35;11.60;;;7.10;;
66667;SDS011;57205;51.438;-2.006;2023-06-10T12:52:01;11.40;;;6.57;;
66667;SDS011;57205;51.438;-2.006;2023-06-10T12:54:27;10.15;;;6.00;;
66667;SDS011;57205;51.438;-2.006;2023-06-10T12:56:53;8.05;;;6.55;;
66667;SDS011;57205;51.438;-2.006;2023-06-10T12:59:18;8.80;;;6.90;;
66667;SDS011;57205;51.438;-2.006;2023-06-10T13:01:44;7.93;;;6.30;;
66667;SDS011;57205;51.438;-2.006;2023-06-10T13:04:15;71.28;;;43.15;;
66667;SDS011;57205;51.438;-2.006;2023-06-10T13:06:41;11.55;;;5.95;;
66667;SDS011;57205;51.438;-2.006;2023-06-10T13:09:06;10.82;;;5.78;;
66667;SDS011;57205;51.438;-2.006;2023-06-10T13:11:32;8.73;;;5.50;;
66667;SDS011;57205;51.438;-2.006;2023-06-10T13:13:58;8.57;;;5.90;;
66667;SDS011;57205;51.438;-2.006;2023-06-10T13:16:23;10.02;;;5.57;;
66667;SDS011;57205;51.438;-2.006;2023-06-10T13:18:48;10.50;;;6.03;;
66667;SDS011;57205;51.438;-2.006;2023-06-10T13:21:14;8.82;;;5.25;;
66667;SDS011;57205;51.438;-2.006;2023-06-10T13:23:40;9.77;;;6.40;;
66667;SDS011;57205;51.438;-2.006;2023-06-10T13:26:05;9.20;;;6.05;;
66667;SDS011;57205;51.438;-2.006;2023-06-10T13:28:31;13.73;;;6.97;;
66667;SDS011;57205;51.438;-2.006;2023-06-10T13:30:57;8.43;;;6.07;;
66667;SDS011;57205;51.438;-2.006;2023-06-10T13:33:22;9.02;;;6.10;;
66667;SDS011;57205;51.438;-2.006;2023-06-10T13:35:47;13.23;;;6.18;;
66667;SDS011;57205;51.438;-2.006;2023-06-10T13:38:13;10.57;;;6.57;;
66667;SDS011;57205;51.438;-2.006;2023-06-10T13:40:38;9.50;;;5.97;;
66667;SDS011;57205;51.438;-2.006;2023-06-10T13:43:04;11.40;;;6.32;;
66667;SDS011;57205;51.438;-2.006;2023-06-10T13:45:29;9.52;;;6.30;;
66667;SDS011;57205;51.438;-2.006;2023-06-10T13:47:55;9.38;;;6.13;;
66667;SDS011;57205;51.438;-2.006;2023-06-10T13:50:20;8.55;;;5.82;;
66667;SDS011;57205;51.438;-2.006;2023-06-10T13:52:46;8.60;;;5.45;;
66667;SDS011;57205;51.438;-2.006;2023-06-10T13:55:11;9.15;;;5.65;;
66667;SDS011;57205;51.438;-2.006;2023-06-10T13:57:37;8.45;;;6.18;;
66667;SDS011;57205;51.438;-2.006;2023-06-10T14:00:02;9.40;;;6.50;;
66667;SDS011;57205;51.438;-2.006;2023-06-10T14:02:28;9.80;;;6.10;;
66667;SDS011;57205;51.438;-2.006;2023-06-10T14:04:54;10.82;;;6.20;;
66667;SDS011;57205;51.438;-2.006;2023-06-10T14:07:20;12.02;;;6.38;;
66667;SDS011;57205;51.438;-2.006;2023-06-10T14:09:45;8.20;;;6.50;;
66667;SDS011;57205;51.438;-2.006;2023-06-10T14:12:11;12.32;;;6.88;;
66667;SDS011;57205;51.438;-2.006;2023-06-10T14:14:37;12.70;;;6.43;;
66667;SDS011;57205;51.438;-2.006;2023-06-10T14:17:03;9.65;;;6.30;;
66667;SDS011;57205;51.438;-2.006;2023-06-10T14:19:29;9.52;;;6.05;;
66667;SDS011;57205;51.438;-2.006;2023-06-10T14:21:55;8.63;;;5.78;;
66667;SDS011;57205;51.438;-2.006;2023-06-10T14:24:20;7.95;;;5.47;;
66667;SDS011;57205;51.438;-2.006;2023-06-10T14:26:46;12.82;;;6.35;;
66667;SDS011;57205;51.438;-2.006;2023-06-10T14:29:12;8.52;;;5.55;;
66667;SDS011;57205;51.438;-2.006;2023-06-10T14:31:39;10.88;;;5.55;;
66667;SDS011;57205;51.438;-2.006;2023-06-10T14:34:05;11.25;;;6.05;;
66667;SDS011;57205;51.438;-2.006;2023-06-10T14:36:32;9.32;;;6.30;;
66667;SDS011;57205;51.438;-2.006;2023-06-10T14:38:58;12.23;;;6.38;;
66667;SDS011;57205;51.438;-2.006;2023-06-10T14:41:23;8.90;;;6.07;;